sensor_id;sensor_type;location;lat;lon;timestamp;P1;durP1;ratioP1;P2;durP2;ratioP2
25913;SDS011;13718;50.922;5.346;2023-05-29T00:01:39;16.15;;;6.22;;
25913;SDS011;13718;50.922;5.346;2023-05-29T00:04:05;16.08;;;5.95;;
25913;SDS011;13718;50.922;5.346;2023-05-29T00:06:31;13.60;;;5.90;;
25913;SDS011;13718;50.922;5.346;2023-05-29T00:08:57;16.58;;;6.80;;
25913;SDS011;13718;50.922;5.346;2023-05-29T00:11:22;19.65;;;6.25;;
25913;SDS011;13718;50.922;5.346;2023-05-29T00:13:48;15.15;;;5.70;;
25913;SDS011;13718;50.922;5.346;2023-05-29T00:16:13;14.35;;;6.55;;
25913;SDS011;13718;50.922;5.346;2023-05-29T00:18:39;17.05;;;6.35;;
25913;SDS011;13718;50.922;5.346;2023-05-29T00:21:10;18.73;;;6.80;;
25913;SDS011;13718;50.922;5.346;2023-05-29T00:23:37;12.45;;;7.05;;
25913;SDS011;13718;50.922;5.346;2023-05-29T00:26:03;15.98;;;6.90;;
25913;SDS011;13718;50.922;5.346;2023-05-29T00:28:28;14.50;;;6.57;;
25913;SDS011;13718;50.922;5.346;2023-05-29T00:30:54;18.83;;;6.93;;
25913;SDS011;13718;50.922;5.346;2023-05-29T00:33:20;20.35;;;7.15;;
25913;SDS011;13718;50.922;5.346;2023-05-29T00:35:45;20.85;;;6.90;;
25913;SDS011;13718;50.922;5.346;2023-05-29T00:38:11;17.88;;;6.38;;
25913;SDS011;13718;50.922;5.346;2023-05-29T00:40:36;18.90;;;7.30;;
25913;SDS011;13718;50.922;5.346;2023-05-29T00:43:04;13.70;;;6.85;;
25913;SDS011;13718;50.922;5.346;2023-05-29T00:45:30;17.58;;;7.32;;
25913;SDS011;13718;50.922;5.346;2023-05-29T00:47:57;17.20;;;7.50;;
25913;SDS011;13718;50.922;5.346;2023-05-29T00:50:23;19.85;;;7.60;;
25913;SDS011;13718;50.922;5.346;2023-05-29T00:52:48;16.48;;;6.72;;
25913;SDS011;13718;50.922;5.346;2023-05-29T00:55:15;17.00;;;7.65;;
25913;SDS011;13718;50.922;5.346;2023-05-29T00:57:41;15.18;;;7.20;;
25913;SDS011;13718;50.922;5.346;2023-05-29T01:00:07;17.17;;;7.85;;
25913;SDS011;13718;50.922;5.346;2023-05-29T01:02:38;15.88;;;7.82;;
25913;SDS011;13718;50.922;5.346;2023-05-29T01:05:05;21.48;;;7.63;;
25913;SDS011;13718;50.922;5.346;2023-05-29T01:07:32;22.27;;;7.93;;
25913;SDS011;13718;50.922;5.346;2023-05-29T01:09:58;20.05;;;7.88;;
25913;SDS011;13718;50.922;5.346;2023-05-29T01:18:15;19.38;;;8.20;;
25913;SDS011;13718;50.922;5.346;2023-05-29T01:21:06;20.45;;;8.48;;
25913;SDS011;13718;50.922;5.346;2023-05-29T01:26:46;15.00;;;7.40;;
25913;SDS011;13718;50.922;5.346;2023-05-29T01:29:23;19.48;;;8.02;;
25913;SDS011;13718;50.922;5.346;2023-05-29T01:31:52;22.95;;;8.88;;
25913;SDS011;13718;50.922;5.346;2023-05-29T01:34:19;19.33;;;8.35;;
25913;SDS011;13718;50.922;5.346;2023-05-29T01:36:45;16.05;;;8.32;;
25913;SDS011;13718;50.922;5.346;2023-05-29T01:39:14;25.50;;;8.95;;
25913;SDS011;13718;50.922;5.346;2023-05-29T01:41:41;22.25;;;8.50;;
25913;SDS011;13718;50.922;5.346;2023-05-29T01:44:08;20.88;;;9.02;;
25913;SDS011;13718;50.922;5.346;2023-05-29T01:46:39;21.40;;;8.75;;
25913;SDS011;13718;50.922;5.346;2023-05-29T01:49:06;17.90;;;8.57;;
25913;SDS011;13718;50.922;5.346;2023-05-29T01:51:32;19.25;;;8.93;;
25913;SDS011;13718;50.922;5.346;2023-05-29T01:53:58;22.02;;;9.35;;
25913;SDS011;13718;50.922;5.346;2023-05-29T01:56:25;26.83;;;10.45;;
25913;SDS011;13718;50.922;5.346;2023-05-29T01:58:52;27.63;;;9.80;;
25913;SDS011;13718;50.922;5.346;2023-05-29T02:01:20;19.52;;;9.25;;
25913;SDS011;13718;50.922;5.346;2023-05-29T02:03:47;24.67;;;10.32;;
25913;SDS011;13718;50.922;5.346;2023-05-29T02:06:12;26.08;;;10.43;;
25913;SDS011;13718;50.922;5.346;2023-05-29T02:08:38;25.77;;;11.02;;
25913;SDS011;13718;50.922;5.346;2023-05-29T02:11:03;26.42;;;10.35;;
25913;SDS011;13718;50.922;5.346;2023-05-29T02:13:29;20.15;;;9.32;;
25913;SDS011;13718;50.922;5.346;2023-05-29T02:15:55;29.35;;;10.55;;
25913;SDS011;13718;50.922;5.346;2023-05-29T02:18:20;22.08;;;9.80;;
25913;SDS011;13718;50.922;5.346;2023-05-29T02:20:46;24.02;;;10.05;;
25913;SDS011;13718;50.922;5.346;2023-05-29T02:23:12;24.83;;;11.02;;
25913;SDS011;13718;50.922;5.346;2023-05-29T02:25:37;28.20;;;10.25;;
25913;SDS011;13718;50.922;5.346;2023-05-29T02:28:03;23.90;;;9.93;;
25913;SDS011;13718;50.922;5.346;2023-05-29T02:30:29;20.75;;;9.95;;
25913;SDS011;13718;50.922;5.346;2023-05-29T02:32:55;23.35;;;10.38;;
25913;SDS011;13718;50.922;5.346;2023-05-29T02:35:21;22.58;;;8.90;;
25913;SDS011;13718;50.922;5.346;2023-05-29T02:37:50;23.27;;;9.75;;
25913;SDS011;13718;50.922;5.346;2023-05-29T02:40:16;20.88;;;8.57;;
25913;SDS011;13718;50.922;5.346;2023-05-29T02:42:42;21.80;;;8.77;;
25913;SDS011;13718;50.922;5.346;2023-05-29T02:45:08;22.88;;;8.02;;
25913;SDS011;13718;50.922;5.346;2023-05-29T02:47:34;19.88;;;8.30;;
25913;SDS011;13718;50.922;5.346;2023-05-29T02:50:00;22.23;;;8.02;;
25913;SDS011;13718;50.922;5.346;2023-05-29T02:52:27;22.30;;;8.13;;
25913;SDS011;13718;50.922;5.346;2023-05-29T02:54:53;19.38;;;7.32;;
25913;SDS011;13718;50.922;5.346;2023-05-29T02:57:20;24.88;;;8.32;;
25913;SDS011;13718;50.922;5.346;2023-05-29T02:59:46;21.98;;;7.38;;
25913;SDS011;13718;50.922;5.346;2023-05-29T03:02:12;21.58;;;6.88;;
25913;SDS011;13718;50.922;5.346;2023-05-29T03:04:37;21.90;;;7.30;;
25913;SDS011;13718;50.922;5.346;2023-05-29T03:07:03;20.10;;;6.57;;
25913;SDS011;13718;50.922;5.346;2023-05-29T03:09:29;21.58;;;7.03;;
25913;SDS011;13718;50.922;5.346;2023-05-29T03:11:54;19.38;;;6.85;;
25913;SDS011;13718;50.922;5.346;2023-05-29T03:14:20;22.90;;;6.45;;
25913;SDS011;13718;50.922;5.346;2023-05-29T03:16:46;21.73;;;5.57;;
25913;SDS011;13718;50.922;5.346;2023-05-29T03:19:13;21.88;;;6.45;;
25913;SDS011;13718;50.922;5.346;2023-05-29T03:21:38;17.80;;;5.88;;
25913;SDS011;13718;50.922;5.346;2023-05-29T03:24:04;28.42;;;6.85;;
25913;SDS011;13718;50.922;5.346;2023-05-29T03:26:30;16.50;;;5.22;;
25913;SDS011;13718;50.922;5.346;2023-05-29T03:28:56;22.98;;;5.43;;
25913;SDS011;13718;50.922;5.346;2023-05-29T03:31:21;17.38;;;5.70;;
25913;SDS011;13718;50.922;5.346;2023-05-29T03:33:47;25.52;;;5.72;;
25913;SDS011;13718;50.922;5.346;2023-05-29T03:36:14;17.85;;;4.57;;
25913;SDS011;13718;50.922;5.346;2023-05-29T03:38:42;17.27;;;5.55;;
25913;SDS011;13718;50.922;5.346;2023-05-29T03:41:08;23.38;;;5.00;;
25913;SDS011;13718;50.922;5.346;2023-05-29T03:43:33;19.60;;;4.93;;
25913;SDS011;13718;50.922;5.346;2023-05-29T03:45:59;20.45;;;5.10;;
25913;SDS011;13718;50.922;5.346;2023-05-29T03:48:25;21.63;;;4.88;;
25913;SDS011;13718;50.922;5.346;2023-05-29T03:50:50;16.63;;;4.68;;
25913;SDS011;13718;50.922;5.346;2023-05-29T03:53:16;19.85;;;4.72;;
25913;SDS011;13718;50.922;5.346;2023-05-29T03:55:42;23.25;;;4.80;;
25913;SDS011;13718;50.922;5.346;2023-05-29T03:58:07;20.38;;;4.60;;
25913;SDS011;13718;50.922;5.346;2023-05-29T04:00:33;19.80;;;4.10;;
25913;SDS011;13718;50.922;5.346;2023-05-29T04:02:58;18.83;;;4.55;;
25913;SDS011;13718;50.922;5.346;2023-05-29T04:05:24;25.15;;;4.82;;
25913;SDS011;13718;50.922;5.346;2023-05-29T04:07:51;15.55;;;4.65;;
25913;SDS011;13718;50.922;5.346;2023-05-29T04:10:17;18.67;;;3.90;;
25913;SDS011;13718;50.922;5.346;2023-05-29T04:12:42;15.45;;;4.60;;
25913;SDS011;13718;50.922;5.346;2023-05-29T04:15:08;19.52;;;4.68;;
25913;SDS011;13718;50.922;5.346;2023-05-29T04:17:34;19.73;;;4.07;;
25913;SDS011;13718;50.922;5.346;2023-05-29T04:19:59;22.63;;;4.07;;
25913;SDS011;13718;50.922;5.346;2023-05-29T04:22:31;16.05;;;3.20;;
25913;SDS011;13718;50.922;5.346;2023-05-29T04:24:56;21.58;;;3.70;;
25913;SDS011;13718;50.922;5.346;2023-05-29T04:27:22;17.33;;;3.65;;
25913;SDS011;13718;50.922;5.346;2023-05-29T04:29:47;19.25;;;4.57;;
25913;SDS011;13718;50.922;5.346;2023-05-29T04:32:13;14.25;;;3.15;;
25913;SDS011;13718;50.922;5.346;2023-05-29T04:34:39;27.90;;;4.95;;
25913;SDS011;13718;50.922;5.346;2023-05-29T04:37:05;20.73;;;4.10;;
25913;SDS011;13718;50.922;5.346;2023-05-29T04:39:31;15.93;;;3.60;;
25913;SDS011;13718;50.922;5.346;2023-05-29T04:41:57;18.05;;;3.17;;
25913;SDS011;13718;50.922;5.346;2023-05-29T04:44:25;19.75;;;3.78;;
25913;SDS011;13718;50.922;5.346;2023-05-29T04:46:51;19.20;;;3.50;;
25913;SDS011;13718;50.922;5.346;2023-05-29T04:49:17;19.10;;;4.07;;
25913;SDS011;13718;50.922;5.346;2023-05-29T04:51:44;25.63;;;4.65;;
25913;SDS011;13718;50.922;5.346;2023-05-29T04:54:10;19.60;;;4.22;;
25913;SDS011;13718;50.922;5.346;2023-05-29T04:56:36;20.58;;;3.88;;
25913;SDS011;13718;50.922;5.346;2023-05-29T04:59:02;20.95;;;3.65;;
25913;SDS011;13718;50.922;5.346;2023-05-29T05:01:28;19.05;;;3.65;;
25913;SDS011;13718;50.922;5.346;2023-05-29T05:03:53;21.23;;;3.90;;
25913;SDS011;13718;50.922;5.346;2023-05-29T05:06:21;24.92;;;4.18;;
25913;SDS011;13718;50.922;5.346;2023-05-29T05:08:47;22.25;;;4.20;;
25913;SDS011;13718;50.922;5.346;2023-05-29T05:11:12;14.27;;;3.25;;
25913;SDS011;13718;50.922;5.346;2023-05-29T05:13:39;20.02;;;3.40;;
25913;SDS011;13718;50.922;5.346;2023-05-29T05:16:05;25.55;;;3.90;;
25913;SDS011;13718;50.922;5.346;2023-05-29T05:18:31;21.85;;;3.67;;
25913;SDS011;13718;50.922;5.346;2023-05-29T05:20:56;19.60;;;3.97;;
25913;SDS011;13718;50.922;5.346;2023-05-29T05:23:22;24.45;;;3.75;;
25913;SDS011;13718;50.922;5.346;2023-05-29T05:25:47;17.38;;;3.70;;
25913;SDS011;13718;50.922;5.346;2023-05-29T05:28:13;19.73;;;3.88;;
25913;SDS011;13718;50.922;5.346;2023-05-29T05:30:39;25.08;;;4.22;;
25913;SDS011;13718;50.922;5.346;2023-05-29T05:33:04;19.60;;;3.65;;
25913;SDS011;13718;50.922;5.346;2023-05-29T05:35:30;18.00;;;3.35;;
25913;SDS011;13718;50.922;5.346;2023-05-29T05:37:55;21.00;;;3.33;;
25913;SDS011;13718;50.922;5.346;2023-05-29T05:40:23;14.85;;;3.08;;
25913;SDS011;13718;50.922;5.346;2023-05-29T05:42:49;17.70;;;4.25;;
25913;SDS011;13718;50.922;5.346;2023-05-29T05:45:15;20.23;;;3.10;;
25913;SDS011;13718;50.922;5.346;2023-05-29T05:47:41;16.50;;;3.10;;
25913;SDS011;13718;50.922;5.346;2023-05-29T05:50:07;15.32;;;3.08;;
25913;SDS011;13718;50.922;5.346;2023-05-29T05:52:33;18.85;;;2.95;;
25913;SDS011;13718;50.922;5.346;2023-05-29T05:54:59;15.80;;;3.17;;
25913;SDS011;13718;50.922;5.346;2023-05-29T05:57:24;15.35;;;3.45;;
25913;SDS011;13718;50.922;5.346;2023-05-29T05:59:50;17.85;;;3.50;;
25913;SDS011;13718;50.922;5.346;2023-05-29T06:02:16;15.38;;;3.50;;
25913;SDS011;13718;50.922;5.346;2023-05-29T06:04:42;22.77;;;4.43;;
25913;SDS011;13718;50.922;5.346;2023-05-29T06:07:08;16.20;;;2.97;;
25913;SDS011;13718;50.922;5.346;2023-05-29T06:09:34;14.07;;;2.95;;
25913;SDS011;13718;50.922;5.346;2023-05-29T06:11:59;16.40;;;3.92;;
25913;SDS011;13718;50.922;5.346;2023-05-29T06:14:25;12.93;;;3.03;;
25913;SDS011;13718;50.922;5.346;2023-05-29T06:16:51;13.82;;;3.50;;
25913;SDS011;13718;50.922;5.346;2023-05-29T06:19:16;19.95;;;3.45;;
25913;SDS011;13718;50.922;5.346;2023-05-29T06:21:42;18.98;;;3.97;;
25913;SDS011;13718;50.922;5.346;2023-05-29T06:24:08;18.30;;;3.17;;
25913;SDS011;13718;50.922;5.346;2023-05-29T06:26:33;15.35;;;3.00;;
25913;SDS011;13718;50.922;5.346;2023-05-29T06:28:59;21.48;;;3.10;;
25913;SDS011;13718;50.922;5.346;2023-05-29T06:31:25;15.90;;;2.92;;
25913;SDS011;13718;50.922;5.346;2023-05-29T06:33:50;15.05;;;3.60;;
25913;SDS011;13718;50.922;5.346;2023-05-29T06:36:16;14.30;;;3.45;;
25913;SDS011;13718;50.922;5.346;2023-05-29T06:38:47;16.88;;;3.63;;
25913;SDS011;13718;50.922;5.346;2023-05-29T06:41:14;17.80;;;3.03;;
25913;SDS011;13718;50.922;5.346;2023-05-29T06:43:39;16.30;;;3.85;;
25913;SDS011;13718;50.922;5.346;2023-05-29T06:46:05;22.02;;;3.50;;
25913;SDS011;13718;50.922;5.346;2023-05-29T06:48:34;11.35;;;2.80;;
25913;SDS011;13718;50.922;5.346;2023-05-29T06:51:00;12.52;;;3.05;;
25913;SDS011;13718;50.922;5.346;2023-05-29T06:53:26;21.60;;;3.97;;
25913;SDS011;13718;50.922;5.346;2023-05-29T06:55:52;15.55;;;3.78;;
25913;SDS011;13718;50.922;5.346;2023-05-29T06:58:18;14.57;;;3.45;;
25913;SDS011;13718;50.922;5.346;2023-05-29T07:00:43;17.27;;;3.20;;
25913;SDS011;13718;50.922;5.346;2023-05-29T07:03:09;11.65;;;3.38;;
25913;SDS011;13718;50.922;5.346;2023-05-29T07:05:35;15.05;;;2.97;;
25913;SDS011;13718;50.922;5.346;2023-05-29T07:08:01;15.07;;;3.60;;
25913;SDS011;13718;50.922;5.346;2023-05-29T07:10:26;17.02;;;2.85;;
25913;SDS011;13718;50.922;5.346;2023-05-29T07:12:52;13.38;;;3.35;;
25913;SDS011;13718;50.922;5.346;2023-05-29T07:15:18;13.40;;;2.90;;
25913;SDS011;13718;50.922;5.346;2023-05-29T07:17:43;14.63;;;3.42;;
25913;SDS011;13718;50.922;5.346;2023-05-29T07:20:09;16.70;;;3.28;;
25913;SDS011;13718;50.922;5.346;2023-05-29T07:22:35;12.52;;;3.10;;
25913;SDS011;13718;50.922;5.346;2023-05-29T07:25:01;16.05;;;3.45;;
25913;SDS011;13718;50.922;5.346;2023-05-29T07:27:28;17.92;;;3.70;;
25913;SDS011;13718;50.922;5.346;2023-05-29T07:29:54;16.15;;;3.08;;
25913;SDS011;13718;50.922;5.346;2023-05-29T07:32:20;17.80;;;3.95;;
25913;SDS011;13718;50.922;5.346;2023-05-29T07:34:46;13.30;;;2.90;;
25913;SDS011;13718;50.922;5.346;2023-05-29T07:37:14;17.48;;;3.92;;
25913;SDS011;13718;50.922;5.346;2023-05-29T07:39:40;14.15;;;4.15;;
25913;SDS011;13718;50.922;5.346;2023-05-29T07:42:07;15.23;;;3.75;;
25913;SDS011;13718;50.922;5.346;2023-05-29T07:44:33;15.32;;;3.53;;
25913;SDS011;13718;50.922;5.346;2023-05-29T07:46:58;16.77;;;3.42;;
25913;SDS011;13718;50.922;5.346;2023-05-29T07:49:24;14.07;;;2.97;;
25913;SDS011;13718;50.922;5.346;2023-05-29T07:51:50;16.90;;;3.25;;
25913;SDS011;13718;50.922;5.346;2023-05-29T07:54:15;17.50;;;3.65;;
25913;SDS011;13718;50.922;5.346;2023-05-29T07:56:43;14.48;;;3.55;;
25913;SDS011;13718;50.922;5.346;2023-05-29T07:59:09;13.15;;;3.00;;
25913;SDS011;13718;50.922;5.346;2023-05-29T08:01:35;16.50;;;3.17;;
25913;SDS011;13718;50.922;5.346;2023-05-29T08:04:01;15.88;;;3.40;;
25913;SDS011;13718;50.922;5.346;2023-05-29T08:06:27;13.00;;;3.25;;
25913;SDS011;13718;50.922;5.346;2023-05-29T08:08:53;15.43;;;3.13;;
25913;SDS011;13718;50.922;5.346;2023-05-29T08:11:19;14.40;;;3.45;;
25913;SDS011;13718;50.922;5.346;2023-05-29T08:13:44;15.15;;;3.55;;
25913;SDS011;13718;50.922;5.346;2023-05-29T08:16:10;18.02;;;4.40;;
25913;SDS011;13718;50.922;5.346;2023-05-29T08:18:39;13.70;;;3.15;;
25913;SDS011;13718;50.922;5.346;2023-05-29T08:21:04;18.25;;;3.50;;
25913;SDS011;13718;50.922;5.346;2023-05-29T08:23:30;18.85;;;3.90;;
25913;SDS011;13718;50.922;5.346;2023-05-29T08:25:56;15.00;;;3.40;;
25913;SDS011;13718;50.922;5.346;2023-05-29T08:28:22;19.77;;;3.72;;
25913;SDS011;13718;50.922;5.346;2023-05-29T08:30:48;16.42;;;3.20;;
25913;SDS011;13718;50.922;5.346;2023-05-29T08:33:13;13.93;;;3.47;;
25913;SDS011;13718;50.922;5.346;2023-05-29T08:35:39;14.95;;;2.85;;
25913;SDS011;13718;50.922;5.346;2023-05-29T08:38:04;14.55;;;3.05;;
25913;SDS011;13718;50.922;5.346;2023-05-29T08:40:31;16.35;;;3.35;;
25913;SDS011;13718;50.922;5.346;2023-05-29T08:42:57;11.13;;;2.72;;
25913;SDS011;13718;50.922;5.346;2023-05-29T08:45:35;14.18;;;3.28;;
25913;SDS011;13718;50.922;5.346;2023-05-29T08:48:06;15.18;;;3.05;;
25913;SDS011;13718;50.922;5.346;2023-05-29T08:50:35;17.98;;;3.75;;
25913;SDS011;13718;50.922;5.346;2023-05-29T08:53:06;16.35;;;3.70;;
25913;SDS011;13718;50.922;5.346;2023-05-29T08:55:31;12.05;;;3.50;;
25913;SDS011;13718;50.922;5.346;2023-05-29T08:57:58;17.75;;;3.10;;
25913;SDS011;13718;50.922;5.346;2023-05-29T09:00:24;14.95;;;3.35;;
25913;SDS011;13718;50.922;5.346;2023-05-29T09:02:53;14.00;;;3.53;;
25913;SDS011;13718;50.922;5.346;2023-05-29T09:05:20;11.20;;;2.90;;
25913;SDS011;13718;50.922;5.346;2023-05-29T09:07:46;18.23;;;3.88;;
25913;SDS011;13718;50.922;5.346;2023-05-29T09:10:14;18.27;;;3.88;;
25913;SDS011;13718;50.922;5.346;2023-05-29T09:12:40;14.77;;;3.80;;
25913;SDS011;13718;50.922;5.346;2023-05-29T09:15:27;12.38;;;3.33;;
25913;SDS011;13718;50.922;5.346;2023-05-29T09:17:53;17.15;;;3.63;;
25913;SDS011;13718;50.922;5.346;2023-05-29T09:20:22;14.45;;;3.40;;
25913;SDS011;13718;50.922;5.346;2023-05-29T09:23:22;19.20;;;4.38;;
25913;SDS011;13718;50.922;5.346;2023-05-29T09:25:43;14.18;;;3.58;;
25913;SDS011;13718;50.922;5.346;2023-05-29T09:28:09;20.15;;;3.85;;
25913;SDS011;13718;50.922;5.346;2023-05-29T09:33:08;11.90;;;3.78;;
25913;SDS011;13718;50.922;5.346;2023-05-29T09:35:36;15.55;;;4.00;;
25913;SDS011;13718;50.922;5.346;2023-05-29T09:38:03;16.85;;;3.80;;
25913;SDS011;13718;50.922;5.346;2023-05-29T09:40:34;17.20;;;3.42;;
25913;SDS011;13718;50.922;5.346;2023-05-29T09:43:05;10.80;;;3.40;;
25913;SDS011;13718;50.922;5.346;2023-05-29T09:45:37;15.48;;;3.55;;
25913;SDS011;13718;50.922;5.346;2023-05-29T09:48:07;14.95;;;3.97;;
25913;SDS011;13718;50.922;5.346;2023-05-29T09:50:38;17.80;;;3.70;;
25913;SDS011;13718;50.922;5.346;2023-05-29T09:53:10;15.98;;;3.78;;
25913;SDS011;13718;50.922;5.346;2023-05-29T09:55:48;13.98;;;3.10;;
25913;SDS011;13718;50.922;5.346;2023-05-29T09:58:15;15.15;;;3.83;;
25913;SDS011;13718;50.922;5.346;2023-05-29T10:00:42;17.15;;;3.03;;
25913;SDS011;13718;50.922;5.346;2023-05-29T10:03:08;18.58;;;4.00;;
25913;SDS011;13718;50.922;5.346;2023-05-29T10:05:35;17.20;;;3.95;;
25913;SDS011;13718;50.922;5.346;2023-05-29T10:08:02;19.35;;;3.53;;
25913;SDS011;13718;50.922;5.346;2023-05-29T10:10:30;17.50;;;3.63;;
25913;SDS011;13718;50.922;5.346;2023-05-29T10:12:56;15.32;;;3.30;;
25913;SDS011;13718;50.922;5.346;2023-05-29T10:15:23;19.30;;;2.85;;
25913;SDS011;13718;50.922;5.346;2023-05-29T10:18:02;14.60;;;3.28;;
25913;SDS011;13718;50.922;5.346;2023-05-29T10:20:29;14.88;;;3.60;;
25913;SDS011;13718;50.922;5.346;2023-05-29T10:22:59;15.48;;;2.92;;
25913;SDS011;13718;50.922;5.346;2023-05-29T10:25:28;12.88;;;3.22;;
25913;SDS011;13718;50.922;5.346;2023-05-29T10:27:56;12.95;;;3.30;;
25913;SDS011;13718;50.922;5.346;2023-05-29T10:36:19;18.23;;;3.70;;
25913;SDS011;13718;50.922;5.346;2023-05-29T10:38:37;15.05;;;3.05;;
25913;SDS011;13718;50.922;5.346;2023-05-29T10:46:35;17.65;;;3.58;;
25913;SDS011;13718;50.922;5.346;2023-05-29T10:49:20;11.85;;;2.95;;
25913;SDS011;13718;50.922;5.346;2023-05-29T10:51:46;15.07;;;3.05;;
25913;SDS011;13718;50.922;5.346;2023-05-29T10:54:13;14.73;;;2.60;;
25913;SDS011;13718;50.922;5.346;2023-05-29T10:56:39;16.38;;;3.20;;
25913;SDS011;13718;50.922;5.346;2023-05-29T10:59:08;13.50;;;3.40;;
25913;SDS011;13718;50.922;5.346;2023-05-29T11:01:34;18.58;;;3.53;;
25913;SDS011;13718;50.922;5.346;2023-05-29T11:06:45;16.42;;;3.17;;
25913;SDS011;13718;50.922;5.346;2023-05-29T11:15:07;12.35;;;3.03;;
25913;SDS011;13718;50.922;5.346;2023-05-29T11:20:05;12.80;;;2.72;;
25913;SDS011;13718;50.922;5.346;2023-05-29T11:23:01;12.88;;;2.63;;
25913;SDS011;13718;50.922;5.346;2023-05-29T11:25:28;12.70;;;3.00;;
25913;SDS011;13718;50.922;5.346;2023-05-29T11:27:58;11.00;;;2.53;;
25913;SDS011;13718;50.922;5.346;2023-05-29T11:30:23;9.90;;;2.90;;
25913;SDS011;13718;50.922;5.346;2023-05-29T11:32:49;15.20;;;3.10;;
25913;SDS011;13718;50.922;5.346;2023-05-29T11:35:17;16.70;;;2.85;;
25913;SDS011;13718;50.922;5.346;2023-05-29T11:37:46;11.27;;;2.95;;
25913;SDS011;13718;50.922;5.346;2023-05-29T11:40:12;15.45;;;3.03;;
25913;SDS011;13718;50.922;5.346;2023-05-29T11:42:43;15.45;;;3.30;;
25913;SDS011;13718;50.922;5.346;2023-05-29T11:45:13;12.05;;;3.42;;
25913;SDS011;13718;50.922;5.346;2023-05-29T11:47:50;11.82;;;2.88;;
25913;SDS011;13718;50.922;5.346;2023-05-29T11:50:24;11.35;;;2.40;;
25913;SDS011;13718;50.922;5.346;2023-05-29T11:52:51;11.55;;;2.47;;
25913;SDS011;13718;50.922;5.346;2023-05-29T11:55:17;9.40;;;3.03;;
25913;SDS011;13718;50.922;5.346;2023-05-29T11:57:47;12.43;;;3.03;;
25913;SDS011;13718;50.922;5.346;2023-05-29T12:00:17;10.77;;;3.20;;
25913;SDS011;13718;50.922;5.346;2023-05-29T12:02:44;11.95;;;2.70;;
25913;SDS011;13718;50.922;5.346;2023-05-29T12:05:12;10.80;;;2.70;;
25913;SDS011;13718;50.922;5.346;2023-05-29T12:10:20;11.32;;;2.78;;
25913;SDS011;13718;50.922;5.346;2023-05-29T12:12:53;13.15;;;2.85;;
25913;SDS011;13718;50.922;5.346;2023-05-29T12:15:20;11.20;;;2.40;;
25913;SDS011;13718;50.922;5.346;2023-05-29T12:17:47;15.70;;;2.90;;
25913;SDS011;13718;50.922;5.346;2023-05-29T12:20:16;12.95;;;3.00;;
25913;SDS011;13718;50.922;5.346;2023-05-29T12:22:43;13.57;;;2.95;;
25913;SDS011;13718;50.922;5.346;2023-05-29T12:25:11;16.17;;;3.28;;
25913;SDS011;13718;50.922;5.346;2023-05-29T12:27:45;10.70;;;3.28;;
25913;SDS011;13718;50.922;5.346;2023-05-29T12:32:44;13.77;;;3.85;;
25913;SDS011;13718;50.922;5.346;2023-05-29T12:35:24;12.00;;;2.92;;
25913;SDS011;13718;50.922;5.346;2023-05-29T12:37:59;11.00;;;2.78;;
25913;SDS011;13718;50.922;5.346;2023-05-29T12:40:27;10.02;;;2.60;;
25913;SDS011;13718;50.922;5.346;2023-05-29T12:43:03;12.05;;;3.08;;
25913;SDS011;13718;50.922;5.346;2023-05-29T12:45:35;7.68;;;2.80;;
25913;SDS011;13718;50.922;5.346;2023-05-29T12:48:02;12.90;;;3.65;;
25913;SDS011;13718;50.922;5.346;2023-05-29T12:53:02;14.23;;;2.92;;
25913;SDS011;13718;50.922;5.346;2023-05-29T12:55:39;8.63;;;2.63;;
25913;SDS011;13718;50.922;5.346;2023-05-29T12:58:09;13.25;;;2.47;;
25913;SDS011;13718;50.922;5.346;2023-05-29T13:00:41;11.95;;;3.13;;
25913;SDS011;13718;50.922;5.346;2023-05-29T13:03:08;9.65;;;2.80;;
25913;SDS011;13718;50.922;5.346;2023-05-29T13:05:36;10.40;;;2.97;;
25913;SDS011;13718;50.922;5.346;2023-05-29T13:08:01;13.85;;;2.70;;
25913;SDS011;13718;50.922;5.346;2023-05-29T13:10:31;12.57;;;2.83;;
25913;SDS011;13718;50.922;5.346;2023-05-29T13:12:56;16.73;;;2.92;;
25913;SDS011;13718;50.922;5.346;2023-05-29T13:15:24;11.23;;;2.50;;
25913;SDS011;13718;50.922;5.346;2023-05-29T13:17:51;15.85;;;2.97;;
25913;SDS011;13718;50.922;5.346;2023-05-29T13:20:18;15.88;;;3.28;;
25913;SDS011;13718;50.922;5.346;2023-05-29T13:22:45;16.08;;;3.15;;
25913;SDS011;13718;50.922;5.346;2023-05-29T13:25:13;12.75;;;3.50;;
25913;SDS011;13718;50.922;5.346;2023-05-29T13:27:41;13.80;;;3.03;;
25913;SDS011;13718;50.922;5.346;2023-05-29T13:30:08;14.60;;;3.85;;
25913;SDS011;13718;50.922;5.346;2023-05-29T13:32:35;13.73;;;2.63;;
25913;SDS011;13718;50.922;5.346;2023-05-29T13:35:01;7.85;;;2.40;;
25913;SDS011;13718;50.922;5.346;2023-05-29T13:37:28;10.95;;;2.92;;
25913;SDS011;13718;50.922;5.346;2023-05-29T13:39:53;16.48;;;3.47;;
25913;SDS011;13718;50.922;5.346;2023-05-29T13:42:20;17.45;;;3.20;;
25913;SDS011;13718;50.922;5.346;2023-05-29T13:44:46;8.45;;;2.67;;
25913;SDS011;13718;50.922;5.346;2023-05-29T13:47:12;12.55;;;3.00;;
25913;SDS011;13718;50.922;5.346;2023-05-29T13:49:38;10.20;;;2.63;;
25913;SDS011;13718;50.922;5.346;2023-05-29T13:52:04;15.55;;;3.05;;
25913;SDS011;13718;50.922;5.346;2023-05-29T13:54:30;14.60;;;3.03;;
25913;SDS011;13718;50.922;5.346;2023-05-29T13:57:00;14.43;;;2.95;;
25913;SDS011;13718;50.922;5.346;2023-05-29T13:59:30;10.65;;;2.10;;
25913;SDS011;13718;50.922;5.346;2023-05-29T14:02:00;12.38;;;2.75;;
25913;SDS011;13718;50.922;5.346;2023-05-29T14:04:26;14.40;;;3.38;;
25913;SDS011;13718;50.922;5.346;2023-05-29T14:06:54;12.52;;;3.03;;
25913;SDS011;13718;50.922;5.346;2023-05-29T14:09:21;10.98;;;2.67;;
25913;SDS011;13718;50.922;5.346;2023-05-29T14:11:53;13.85;;;3.00;;
25913;SDS011;13718;50.922;5.346;2023-05-29T14:14:27;13.50;;;2.92;;
25913;SDS011;13718;50.922;5.346;2023-05-29T14:16:53;11.95;;;3.30;;
25913;SDS011;13718;50.922;5.346;2023-05-29T14:19:19;11.07;;;2.63;;
25913;SDS011;13718;50.922;5.346;2023-05-29T14:21:46;12.48;;;2.70;;
25913;SDS011;13718;50.922;5.346;2023-05-29T14:24:11;13.60;;;3.03;;
25913;SDS011;13718;50.922;5.346;2023-05-29T14:26:38;11.30;;;3.03;;
25913;SDS011;13718;50.922;5.346;2023-05-29T14:29:04;12.98;;;3.33;;
25913;SDS011;13718;50.922;5.346;2023-05-29T14:31:29;11.25;;;2.88;;
25913;SDS011;13718;50.922;5.346;2023-05-29T14:33:55;13.80;;;3.03;;
25913;SDS011;13718;50.922;5.346;2023-05-29T14:36:21;11.63;;;2.90;;
25913;SDS011;13718;50.922;5.346;2023-05-29T14:38:47;9.98;;;3.00;;
25913;SDS011;13718;50.922;5.346;2023-05-29T14:41:14;15.77;;;3.20;;
25913;SDS011;13718;50.922;5.346;2023-05-29T14:43:41;11.88;;;2.95;;
25913;SDS011;13718;50.922;5.346;2023-05-29T14:46:07;15.32;;;3.10;;
25913;SDS011;13718;50.922;5.346;2023-05-29T14:48:33;16.63;;;3.53;;
25913;SDS011;13718;50.922;5.346;2023-05-29T14:50:59;13.95;;;7.10;;
25913;SDS011;13718;50.922;5.346;2023-05-29T14:53:25;12.38;;;2.58;;
25913;SDS011;13718;50.922;5.346;2023-05-29T14:55:51;11.93;;;3.17;;
25913;SDS011;13718;50.922;5.346;2023-05-29T14:58:16;12.48;;;2.70;;
25913;SDS011;13718;50.922;5.346;2023-05-29T15:00:42;13.43;;;3.00;;
25913;SDS011;13718;50.922;5.346;2023-05-29T15:03:07;14.98;;;3.10;;
25913;SDS011;13718;50.922;5.346;2023-05-29T15:05:33;10.20;;;2.65;;
25913;SDS011;13718;50.922;5.346;2023-05-29T15:07:58;13.27;;;3.03;;
25913;SDS011;13718;50.922;5.346;2023-05-29T15:10:25;11.00;;;3.00;;
25913;SDS011;13718;50.922;5.346;2023-05-29T15:12:53;11.27;;;2.90;;
25913;SDS011;13718;50.922;5.346;2023-05-29T15:15:23;12.25;;;3.28;;